Time;durP1;ratioP1;P1;durP2;ratioP2;P2;SDS_P1;SDS_P2;PMS_P1;PMS_P2;Temp;Humidity;BMP_temperature;BMP_pressure;BME280_temperature;BME280_humidity;BME280_pressure;Samples;Min_cycle;Max_cycle;Signal;HPM_P1;HPM_P2
2022/08/19 00:01:29;;;;;;;8.27;7.57;;;28.70;90.20;;;;;;6132065;23;20379;-94
2022/08/19 00:04:00;;;;;;;8.07;7.23;;;28.70;90.30;;;;;;6132141;23;20494;-94
2022/08/19 00:06:27;;;;;;;8.33;7.43;;;28.60;90.40;;;;;;6132507;23;20506;-94
2022/08/19 00:08:53;;;;;;;9.07;8.17;;;28.60;90.40;;;;;;6132272;23;20379;-94
2022/08/19 00:11:19;;;;;;;9.50;8.60;;;28.60;90.50;;;;;;6132125;23;20394;-94
2022/08/19 00:13:48;;;;;;;10.03;7.83;;;28.50;90.40;;;;;;6158566;23;20381;-94
2022/08/19 00:16:14;;;;;;;8.13;7.33;;;28.50;90.50;;;;;;6137738;23;20409;-94
2022/08/19 00:18:41;;;;;;;10.80;8.17;;;28.40;90.70;;;;;;6156601;23;20440;-95
2022/08/19 00:21:07;;;;;;;9.37;8.10;;;28.40;90.80;;;;;;6132052;23;20409;-95
2022/08/19 00:23:34;;;;;;;8.80;8.00;;;28.30;90.90;;;;;;6132065;23;20406;-94
2022/08/19 00:26:00;;;;;;;9.07;7.77;;;28.30;91.00;;;;;;6131897;23;20922;-95
2022/08/19 00:28:26;;;;;;;9.53;7.80;;;28.30;91.10;;;;;;6132198;23;20526;-94
2022/08/19 00:30:53;;;;;;;10.53;8.50;;;28.20;91.10;;;;;;6133849;23;20611;-94
2022/08/19 00:33:19;;;;;;;9.93;8.03;;;28.10;91.10;;;;;;6133855;23;20403;-95
2022/08/19 00:35:45;;;;;;;8.87;8.07;;;28.10;91.20;;;;;;6133495;23;20403;-96
2022/08/19 00:38:10;;;;;;;8.83;7.93;;;28.10;91.60;;;;;;6134552;23;20917;-94
2022/08/19 00:40:36;;;;;;;10.00;8.93;;;28.10;91.50;;;;;;6150893;23;20234;-94
2022/08/19 00:43:09;;;;;;;11.00;9.37;;;28.00;91.50;;;;;;6136398;23;20565;-95
2022/08/19 00:45:35;;;;;;;10.90;7.67;;;28.00;91.70;;;;;;6131697;23;20184;-94
2022/08/19 00:48:04;;;;;;;7.93;7.13;;;27.90;91.80;;;;;;6132329;23;20405;-94
2022/08/19 00:50:31;;;;;;;8.40;7.10;;;27.90;91.90;;;;;;6158317;23;20459;-94
2022/08/19 00:52:57;;;;;;;9.13;8.00;;;27.80;92.00;;;;;;6133680;23;20706;-94
2022/08/19 00:55:28;;;;;;;9.60;7.80;;;27.80;92.10;;;;;;6134225;23;20489;-93
2022/08/19 00:58:08;;;;;;;9.40;8.13;;;27.70;92.10;;;;;;6133113;23;20408;-95
2022/08/19 01:00:37;;;;;;;9.37;8.37;;;27.70;92.20;;;;;;6132944;23;20461;-95
2022/08/19 01:03:08;;;;;;;13.93;8.57;;;27.70;92.30;;;;;;6134971;23;20401;-95
2022/08/19 01:05:35;;;;;;;11.83;9.00;;;27.60;92.30;;;;;;6161650;23;20497;-94
2022/08/19 01:08:04;;;;;;;9.20;8.27;;;27.60;92.40;;;;;;6135467;23;20405;-94
2022/08/19 01:10:33;;;;;;;9.33;8.03;;;27.50;92.30;;;;;;6160734;23;20397;-95
2022/08/19 01:13:00;;;;;;;9.97;8.20;;;27.50;92.40;;;;;;6134620;23;20397;-94
2022/08/19 01:15:39;;;;;;;9.93;8.63;;;27.50;92.40;;;;;;6134837;23;20414;-94
2022/08/19 01:18:09;;;;;;;8.27;7.40;;;27.40;92.50;;;;;;6161455;23;20957;-95
2022/08/19 01:20:35;;;;;;;10.93;8.03;;;27.40;92.60;;;;;;6134768;23;20425;-95
2022/08/19 01:23:02;;;;;;;11.90;8.83;;;27.40;92.70;;;;;;6134514;23;20404;-94
2022/08/19 01:25:34;;;;;;;10.33;9.23;;;27.40;92.80;;;;;;6130126;23;20445;-94
2022/08/19 01:28:00;;;;;;;10.27;8.30;;;27.30;92.90;;;;;;6139254;23;20390;-94
2022/08/19 01:30:30;;;;;;;11.00;9.50;;;27.30;93.00;;;;;;6138225;23;20497;-94
2022/08/19 01:32:56;;;;;;;10.33;9.33;;;27.30;93.10;;;;;;6132320;23;20170;-95
2022/08/19 01:35:24;;;;;;;10.37;9.37;;;27.20;93.20;;;;;;6140065;23;20406;-94
2022/08/19 01:37:58;;;;;;;12.10;7.90;;;27.20;93.20;;;;;;6128806;23;20402;-94
2022/08/19 01:40:29;;;;;;;12.50;9.23;;;27.20;93.30;;;;;;6128690;23;20780;-94
2022/08/19 01:42:55;;;;;;;10.70;9.27;;;27.10;93.50;;;;;;6130467;23;20425;-95
2022/08/19 01:45:23;;;;;;;10.53;9.40;;;27.10;93.60;;;;;;6128894;23;20537;-94
2022/08/19 01:47:50;;;;;;;10.27;8.57;;;27.00;93.80;;;;;;6128523;23;20393;-94
2022/08/19 01:50:15;;;;;;;10.50;9.40;;;27.00;93.80;;;;;;6128891;23;20516;-95
2022/08/19 01:52:44;;;;;;;9.57;8.60;;;27.00;93.90;;;;;;6128570;23;20876;-94
2022/08/19 01:55:13;;;;;;;11.03;9.10;;;26.90;93.90;;;;;;6129030;23;20408;-95
2022/08/19 01:57:42;;;;;;;11.30;9.90;;;26.90;93.90;;;;;;6130839;23;20476;-95
2022/08/19 02:00:11;;;;;;;10.60;9.53;;;26.90;94.00;;;;;;6129106;23;20445;-94
2022/08/19 02:02:37;;;;;;;10.87;9.23;;;26.90;94.20;;;;;;6129083;23;20398;-95
2022/08/19 02:05:03;;;;;;;11.03;9.63;;;26.80;94.20;;;;;;6130481;23;20394;-94
2022/08/19 02:07:29;;;;;;;11.40;10.30;;;26.80;94.30;;;;;;6129324;23;20440;-94
2022/08/19 02:09:55;;;;;;;9.77;8.77;;;26.80;94.40;;;;;;6129156;23;20513;-95
2022/08/19 02:12:22;;;;;;;10.70;9.70;;;26.80;94.50;;;;;;6128746;23;20187;-95
2022/08/19 02:14:47;;;;;;;10.73;9.57;;;26.80;94.60;;;;;;6128988;23;20398;-95
2022/08/19 02:17:13;;;;;;;12.03;9.70;;;26.70;94.60;;;;;;6131351;23;20394;-94
2022/08/19 02:19:40;;;;;;;11.50;9.90;;;26.70;94.70;;;;;;6129425;23;20199;-94
2022/08/19 02:22:06;;;;;;;13.80;10.40;;;26.60;94.70;;;;;;6129929;23;20361;-94
2022/08/19 02:24:32;;;;;;;9.73;8.63;;;26.60;94.70;;;;;;6132222;23;20483;-93
2022/08/19 02:26:58;;;;;;;10.73;9.63;;;26.60;94.80;;;;;;6131132;23;20442;-94
2022/08/19 02:29:24;;;;;;;15.80;10.30;;;26.50;95.00;;;;;;6130111;23;20629;-95
2022/08/19 02:31:50;;;;;;;12.17;10.47;;;26.50;94.90;;;;;;6130091;23;20394;-94
2022/08/19 02:34:16;;;;;;;11.00;9.27;;;26.50;94.80;;;;;;6130212;23;20531;-94
2022/08/19 02:36:42;;;;;;;10.27;9.27;;;26.40;94.80;;;;;;6130597;23;20464;-94
2022/08/19 02:39:09;;;;;;;11.70;9.63;;;26.40;94.90;;;;;;6129853;23;20434;-94
2022/08/19 02:41:34;;;;;;;14.73;9.57;;;26.40;94.90;;;;;;6130363;23;20239;-94
2022/08/19 02:44:04;;;;;;;12.53;9.73;;;26.40;94.90;;;;;;6131457;23;20425;-94
2022/08/19 02:46:31;;;;;;;14.50;10.37;;;26.40;94.90;;;;;;6130847;23;20152;-94
2022/08/19 02:49:00;;;;;;;12.03;10.40;;;26.40;95.00;;;;;;6130561;23;20441;-95
2022/08/19 02:51:39;;;;;;;13.60;9.80;;;26.40;95.10;;;;;;6145135;23;20408;-94
2022/08/19 02:54:07;;;;;;;13.87;10.53;;;26.30;95.20;;;;;;6128086;23;20362;-94
2022/08/19 02:56:36;;;;;;;13.77;10.43;;;26.30;95.30;;;;;;6128509;23;20390;-95
2022/08/19 02:59:07;;;;;;;14.83;10.57;;;26.30;95.40;;;;;;6128300;23;20434;-95
2022/08/19 03:01:33;;;;;;;11.63;10.27;;;26.20;95.40;;;;;;6128633;23;20381;-94
2022/08/19 03:04:01;;;;;;;13.60;10.27;;;26.20;95.40;;;;;;6129381;23;20382;-95
2022/08/19 03:06:28;;;;;;;11.87;9.90;;;26.20;95.50;;;;;;6128444;23;20377;-94
2022/08/19 03:08:55;;;;;;;12.13;9.80;;;26.20;95.60;;;;;;6128146;23;20710;-94
2022/08/19 03:11:27;;;;;;;14.13;9.93;;;26.20;95.60;;;;;;6128563;23;20931;-95
2022/08/19 03:13:54;;;;;;;54.33;33.77;;;26.20;95.70;;;;;;6128131;23;20963;-94
2022/08/19 03:16:22;;;;;;;14.13;11.30;;;26.20;95.80;;;;;;6135350;23;20700;-93
2022/08/19 03:18:48;;;;;;;12.93;10.50;;;26.20;95.90;;;;;;6130490;23;20434;-94
2022/08/19 03:21:19;;;;;;;12.27;10.00;;;26.20;95.90;;;;;;6138997;23;20497;-93
2022/08/19 03:23:45;;;;;;;12.70;10.03;;;26.20;96.00;;;;;;6130065;23;20383;-93
2022/08/19 03:26:11;;;;;;;12.40;10.47;;;26.10;96.00;;;;;;6142884;23;20437;-94
2022/08/19 03:28:37;;;;;;;12.60;11.10;;;26.10;96.00;;;;;;6133400;23;20393;-92
2022/08/19 03:31:04;;;;;;;14.67;11.20;;;26.10;96.00;;;;;;6133705;23;20179;-95
2022/08/19 03:33:31;;;;;;;13.37;10.57;;;26.10;96.10;;;;;;6134092;23;20424;-95
2022/08/19 03:36:04;;;;;;;13.20;10.33;;;26.10;96.20;;;;;;6133011;23;20409;-93
2022/08/19 03:38:32;;;;;;;12.40;11.07;;;26.00;96.20;;;;;;6160069;23;20576;-94
2022/08/19 03:40:57;;;;;;;13.50;10.13;;;26.00;96.10;;;;;;6133122;23;20409;-93
2022/08/19 03:43:23;;;;;;;13.50;11.57;;;26.00;96.10;;;;;;6134067;23;20393;-93
2022/08/19 03:45:49;;;;;;;13.10;11.40;;;26.00;96.10;;;;;;6133012;23;20518;-94
2022/08/19 03:48:17;;;;;;;14.13;10.83;;;25.90;96.20;;;;;;6132896;23;20212;-94
2022/08/19 03:50:43;;;;;;;12.40;10.93;;;25.90;96.20;;;;;;6133062;23;20907;-93
2022/08/19 03:53:08;;;;;;;11.47;10.27;;;25.90;96.30;;;;;;6133317;23;20461;-94
2022/08/19 03:55:39;;;;;;;18.03;12.10;;;25.90;96.30;;;;;;6132679;23;20405;-93
2022/08/19 03:58:06;;;;;;;12.70;10.77;;;25.90;96.30;;;;;;6133513;23;20205;-95
2022/08/19 04:00:33;;;;;;;12.40;9.93;;;25.90;96.30;;;;;;6132844;23;20453;-94
2022/08/19 04:02:59;;;;;;;12.20;10.57;;;25.90;96.30;;;;;;6159891;23;20389;-93
2022/08/19 04:05:29;;;;;;;15.67;10.80;;;25.90;96.50;;;;;;6133536;23;20421;-93
2022/08/19 04:07:58;;;;;;;12.60;10.50;;;25.80;96.60;;;;;;6136044;23;20413;-93
2022/08/19 04:10:24;;;;;;;20.47;14.73;;;25.80;96.60;;;;;;6134722;23;20750;-95
2022/08/19 04:12:50;;;;;;;17.63;14.17;;;25.80;96.80;;;;;;6135571;23;20463;-94
2022/08/19 04:15:16;;;;;;;13.07;10.23;;;25.80;96.90;;;;;;6133712;23;20419;-95
2022/08/19 04:17:42;;;;;;;15.80;11.70;;;25.80;97.00;;;;;;6134566;23;20488;-94
2022/08/19 04:20:08;;;;;;;16.23;11.97;;;25.80;97.10;;;;;;6133591;23;20211;-93
2022/08/19 04:22:33;;;;;;;12.40;11.10;;;25.80;97.20;;;;;;6132282;23;20206;-95
2022/08/19 04:24:59;;;;;;;12.90;11.03;;;25.80;97.30;;;;;;6132120;23;20416;-95
2022/08/19 04:27:25;;;;;;;14.23;10.87;;;25.90;97.50;;;;;;6132551;23;20163;-94
2022/08/19 04:29:52;;;;;;;12.20;10.90;;;25.90;97.60;;;;;;6159756;23;20246;-94
2022/08/19 04:32:18;;;;;;;16.33;11.10;;;25.90;97.60;;;;;;6136867;23;20198;-93
2022/08/19 04:34:43;;;;;;;15.50;9.90;;;25.90;97.70;;;;;;6131856;23;20409;-95
2022/08/19 04:37:12;;;;;;;12.40;10.00;;;25.90;97.70;;;;;;6131752;23;20195;-94
2022/08/19 04:42:38;;;;;;;12.80;9.60;;;25.90;97.70;;;;;;6158249;23;20439;-95
2022/08/19 04:45:10;;;;;;;18.27;11.03;;;25.90;97.60;;;;;;6132321;23;20487;-95
2022/08/19 04:47:40;;;;;;;16.87;10.00;;;25.90;97.50;;;;;;6158398;23;20400;-93
2022/08/19 04:50:11;;;;;;;12.20;10.47;;;26.00;97.60;;;;;;6132347;23;20408;-93
2022/08/19 04:52:41;;;;;;;11.97;9.57;;;26.00;97.50;;;;;;6132721;23;20431;-94
2022/08/19 04:55:08;;;;;;;19.10;10.80;;;26.00;97.40;;;;;;6132509;23;20401;-92
2022/08/19 04:57:34;;;;;;;13.63;10.43;;;26.00;97.30;;;;;;6132543;23;20397;-93
2022/08/19 04:59:59;;;;;;;11.77;10.07;;;26.10;97.20;;;;;;6132480;23;20516;-94
2022/08/19 05:02:25;;;;;;;13.27;10.73;;;26.10;97.20;;;;;;6133145;23;20195;-93
2022/08/19 05:04:57;;;;;;;10.77;9.67;;;26.10;97.20;;;;;;6135763;23;20217;-95
2022/08/19 05:07:23;;;;;;;11.50;9.70;;;26.10;97.30;;;;;;6137275;23;20167;-95
2022/08/19 05:09:48;;;;;;;12.80;9.70;;;26.10;97.20;;;;;;6154316;23;20401;-95
2022/08/19 05:12:15;;;;;;;11.53;9.40;;;26.10;97.30;;;;;;6146302;23;20250;-94
2022/08/19 05:14:41;;;;;;;12.00;10.67;;;26.10;97.40;;;;;;6145782;23;20510;-95
2022/08/19 05:17:06;;;;;;;14.00;10.10;;;26.20;97.70;;;;;;6134068;23;20401;-93
2022/08/19 05:25:07;;;;;;;13.33;10.07;;;26.20;98.20;;;;;;6157040;23;20400;-94
2022/08/19 05:27:33;;;;;;;16.47;10.70;;;26.30;98.40;;;;;;6130311;23;20401;-95
2022/08/19 05:29:59;;;;;;;10.17;9.07;;;26.30;98.40;;;;;;6129537;23;20499;-93
2022/08/19 05:32:25;;;;;;;21.73;15.60;;;26.40;98.50;;;;;;6156938;23;20412;-94
2022/08/19 05:34:51;;;;;;;25.83;18.80;;;26.40;97.80;;;;;;6130997;23;20405;-93
2022/08/19 05:37:17;;;;;;;11.27;9.30;;;26.40;97.90;;;;;;6132647;23;20163;-95
2022/08/19 05:39:43;;;;;;;9.90;8.90;;;26.50;97.70;;;;;;6132520;23;20218;-95
2022/08/19 05:42:11;;;;;;;12.20;9.17;;;26.50;97.60;;;;;;6131399;23;20393;-93
2022/08/19 05:44:43;;;;;;;11.33;9.80;;;26.50;97.10;;;;;;6131915;23;20179;-93
2022/08/19 05:47:10;;;;;;;11.33;9.43;;;26.50;97.00;;;;;;6134551;23;20396;-95
2022/08/19 05:49:37;;;;;;;12.43;9.70;;;26.50;96.80;;;;;;6165863;23;20699;-93
2022/08/19 05:52:08;;;;;;;11.13;9.83;;;26.60;96.70;;;;;;6145738;23;20400;-94
2022/08/19 05:54:35;;;;;;;10.40;9.33;;;26.60;96.60;;;;;;6134484;23;20401;-94
2022/08/19 05:57:02;;;;;;;10.70;9.60;;;26.60;96.50;;;;;;6134901;23;20404;-93
2022/08/19 05:59:28;;;;;;;11.10;10.00;;;26.60;96.30;;;;;;6132855;23;20448;-94
2022/08/19 06:01:57;;;;;;;13.47;10.17;;;26.60;96.30;;;;;;6131692;23;20393;-93
2022/08/19 06:04:23;;;;;;;11.97;9.73;;;26.70;96.10;;;;;;6132963;23;20413;-95
2022/08/19 06:06:51;;;;;;;12.60;11.30;;;26.70;96.20;;;;;;6136811;23;20937;-93
2022/08/19 06:09:19;;;;;;;14.13;10.57;;;26.80;96.20;;;;;;6158140;23;20467;-94
2022/08/19 06:11:54;;;;;;;12.80;11.23;;;26.80;96.20;;;;;;6158152;23;20429;-93
2022/08/19 06:14:24;;;;;;;12.17;10.87;;;26.90;96.10;;;;;;6105839;23;20438;-93
2022/08/19 06:16:56;;;;;;;11.30;10.20;;;27.00;96.00;;;;;;6157278;23;20434;-95
2022/08/19 06:19:24;;;;;;;16.13;10.73;;;27.00;95.80;;;;;;6133303;23;20836;-94
2022/08/19 06:21:51;;;;;;;12.53;10.63;;;27.10;95.80;;;;;;6135697;23;20438;-95
2022/08/19 06:24:22;;;;;;;13.43;11.67;;;27.10;95.50;;;;;;6157306;23;20385;-95
2022/08/19 06:26:51;;;;;;;11.90;10.80;;;27.20;95.60;;;;;;6131558;23;20429;-94
2022/08/19 06:29:18;;;;;;;13.37;11.70;;;27.30;95.50;;;;;;6131283;23;20443;-95
2022/08/19 06:31:49;;;;;;;13.47;10.87;;;27.40;95.40;;;;;;6134428;23;20401;-95
2022/08/19 06:34:15;;;;;;;14.33;11.30;;;27.40;95.10;;;;;;6136645;23;20406;-95
2022/08/19 06:36:46;;;;;;;11.83;10.30;;;27.50;95.10;;;;;;6158675;23;20459;-93
2022/08/19 06:39:14;;;;;;;11.90;10.70;;;27.60;95.00;;;;;;6139583;23;20472;-94
2022/08/19 06:41:44;;;;;;;12.37;10.50;;;27.70;95.20;;;;;;6137093;23;20389;-94
2022/08/19 06:44:11;;;;;;;15.27;10.30;;;27.70;95.30;;;;;;6163283;23;20388;-95
2022/08/19 06:46:38;;;;;;;10.60;9.60;;;27.80;95.40;;;;;;6132280;23;20393;-95
2022/08/19 06:49:04;;;;;;;11.43;10.27;;;27.90;95.30;;;;;;6130881;23;20443;-95
2022/08/19 06:51:34;;;;;;;12.47;10.40;;;28.00;95.10;;;;;;6129939;23;20389;-94
2022/08/19 06:53:59;;;;;;;11.60;10.50;;;28.10;94.80;;;;;;6133439;23;20532;-94
2022/08/19 06:56:33;;;;;;;12.27;11.17;;;28.20;94.20;;;;;;6131438;23;20386;-95
2022/08/19 06:59:03;;;;;;;10.80;9.80;;;28.20;94.20;;;;;;6136328;23;20200;-94
2022/08/19 07:01:29;;;;;;;11.37;10.17;;;28.30;94.20;;;;;;6129671;23;20386;-93
2022/08/19 07:03:56;;;;;;;12.03;10.10;;;28.40;94.20;;;;;;6155021;23;20482;-94
2022/08/19 07:06:22;;;;;;;11.63;10.43;;;28.40;93.90;;;;;;6129445;23;20185;-93
2022/08/19 07:08:48;;;;;;;10.63;9.67;;;28.50;93.90;;;;;;6132399;23;20470;-95
2022/08/19 07:11:17;;;;;;;12.40;11.20;;;28.60;93.90;;;;;;6137190;23;20203;-94
2022/08/19 07:13:45;;;;;;;12.90;9.17;;;28.70;93.80;;;;;;6130013;23;20406;-94
2022/08/19 07:16:19;;;;;;;10.63;9.63;;;28.80;93.70;;;;;;6133587;23;20413;-94
2022/08/19 07:18:46;;;;;;;11.80;9.97;;;28.90;93.80;;;;;;6130174;23;20442;-95
2022/08/19 07:21:16;;;;;;;11.50;9.80;;;28.90;93.20;;;;;;6130482;23;20487;-95
2022/08/19 07:23:42;;;;;;;10.80;9.70;;;29.00;93.20;;;;;;6129982;23;20511;-94
2022/08/19 07:26:19;;;;;;;10.40;9.40;;;29.10;93.20;;;;;;6131928;23;20588;-94
2022/08/19 07:28:46;;;;;;;12.23;9.90;;;29.20;93.30;;;;;;6127303;23;20423;-95
2022/08/19 07:31:14;;;;;;;10.30;9.37;;;29.30;93.20;;;;;;6127427;23;20410;-94
2022/08/19 07:33:42;;;;;;;11.50;9.10;;;29.30;92.90;;;;;;6155027;23;20654;-93
2022/08/19 07:36:12;;;;;;;14.10;9.70;;;29.40;92.80;;;;;;6129211;23;20484;-95
2022/08/19 07:38:41;;;;;;;12.23;9.40;;;29.50;92.70;;;;;;6129566;23;20467;-94
2022/08/19 07:41:09;;;;;;;9.93;8.87;;;29.60;92.80;;;;;;6130253;23;20920;-94
2022/08/19 07:43:34;;;;;;;10.03;8.83;;;29.70;92.40;;;;;;6133304;23;20394;-94
2022/08/19 07:46:00;;;;;;;10.20;9.20;;;29.80;92.30;;;;;;6135089;23;20432;-94
2022/08/19 07:48:28;;;;;;;10.50;9.50;;;29.90;92.30;;;;;;6130580;23;20164;-94
2022/08/19 07:51:01;;;;;;;11.60;9.77;;;29.90;92.20;;;;;;6156312;23;20264;-93
2022/08/19 07:53:29;;;;;;;11.10;9.90;;;30.10;92.10;;;;;;6130617;23;20758;-96
2022/08/19 07:55:55;;;;;;;13.00;8.80;;;30.20;92.10;;;;;;6131103;23;20466;-95
2022/08/19 07:58:22;;;;;;;14.40;10.93;;;30.30;92.00;;;;;;6132530;23;20928;-94
2022/08/19 08:00:50;;;;;;;11.77;9.03;;;30.40;91.80;;;;;;6133410;23;20246;-95
2022/08/19 08:03:18;;;;;;;11.27;9.40;;;30.50;91.80;;;;;;6128693;23;20427;-94
2022/08/19 08:11:11;;;;;;;10.37;8.30;;;30.80;91.30;;;;;;6158525;23;20403;-94
2022/08/19 08:13:36;;;;;;;14.80;9.20;;;30.90;91.40;;;;;;6127199;23;20860;-95
2022/08/19 08:16:03;;;;;;;11.37;8.17;;;30.90;91.20;;;;;;6129937;23;20411;-94
2022/08/19 08:18:29;;;;;;;10.67;8.30;;;31.00;91.20;;;;;;6126741;23;20163;-94
2022/08/19 08:20:58;;;;;;;12.83;7.63;;;31.10;91.10;;;;;;6126564;23;20413;-93
2022/08/19 08:23:28;;;;;;;13.73;8.80;;;31.10;90.80;;;;;;6127075;23;20166;-95
2022/08/19 08:25:57;;;;;;;10.27;8.63;;;31.20;90.60;;;;;;6129469;23;20531;-93
2022/08/19 08:28:27;;;;;;;10.37;8.10;;;31.30;90.50;;;;;;6131924;23;20984;-95
2022/08/19 08:30:54;;;;;;;13.20;8.43;;;31.40;90.40;;;;;;6134806;23;20430;-95
2022/08/19 08:33:24;;;;;;;9.80;8.47;;;31.40;90.10;;;;;;6171579;23;20396;-95
2022/08/19 08:35:49;;;;;;;9.80;8.87;;;31.50;90.20;;;;;;6135262;23;20831;-94
2022/08/19 08:38:17;;;;;;;8.90;8.00;;;31.60;90.30;;;;;;6127455;23;20405;-93
2022/08/19 08:40:58;;;;;;;12.03;8.27;;;31.70;90.00;;;;;;6131068;23;20206;-94
2022/08/19 08:43:32;;;;;;;9.57;8.57;;;31.80;89.90;;;;;;6131162;23;20401;-94
2022/08/19 08:46:09;;;;;;;9.47;7.53;;;31.90;89.80;;;;;;6130743;23;20444;-95
2022/08/19 08:48:48;;;;;;;9.93;8.93;;;32.00;88.80;;;;;;6134330;23;20404;-95
2022/08/19 08:51:26;;;;;;;8.03;7.30;;;32.00;88.30;;;;;;6129259;23;20488;-95
2022/08/19 08:53:53;;;;;;;10.50;8.13;;;32.20;88.90;;;;;;6130655;23;20876;-94
2022/08/19 08:56:19;;;;;;;9.67;8.77;;;32.20;88.20;;;;;;6129390;23;20389;-94
2022/08/19 08:59:14;;;;;;;8.07;7.33;;;32.30;88.00;;;;;;6131033;23;20444;-95
2022/08/19 09:01:39;;;;;;;11.27;8.07;;;32.40;87.30;;;;;;6133632;23;20397;-95
2022/08/19 09:04:07;;;;;;;8.80;7.90;;;32.50;87.10;;;;;;6135037;23;20385;-94
2022/08/19 09:06:43;;;;;;;8.60;7.80;;;32.70;86.80;;;;;;6128006;23;20645;-95
2022/08/19 09:09:13;;;;;;;9.80;8.80;;;33.10;86.00;;;;;;6127981;23;20381;-95
2022/08/19 09:11:41;;;;;;;8.00;7.40;;;33.50;85.90;;;;;;6129596;23;20420;-94
2022/08/19 09:14:45;;;;;;;9.57;7.10;;;33.80;84.10;;;;;;6130284;23;20404;-94
2022/08/19 09:17:12;;;;;;;8.23;7.47;;;34.00;84.10;;;;;;6131167;23;20980;-94
2022/08/19 09:19:53;;;;;;;8.40;7.60;;;34.10;83.60;;;;;;6161528;23;20441;-94
2022/08/19 09:22:21;;;;;;;8.17;7.47;;;34.10;83.60;;;;;;6130856;23;20535;-94
2022/08/19 09:24:50;;;;;;;9.27;8.20;;;34.00;83.40;;;;;;6131382;23;20898;-94
2022/08/19 09:27:16;;;;;;;8.03;7.30;;;34.00;83.20;;;;;;6132713;23;20527;-94
2022/08/19 09:29:42;;;;;;;7.97;7.27;;;34.00;83.50;;;;;;6132354;23;20496;-94
2022/08/19 09:32:07;;;;;;;10.33;7.87;;;33.90;83.10;;;;;;6134314;23;20421;-94
2022/08/19 09:34:33;;;;;;;7.50;6.57;;;33.90;82.80;;;;;;6135548;23;20408;-94
2022/08/19 09:36:59;;;;;;;7.97;7.17;;;33.90;82.80;;;;;;6137185;23;20231;-94
2022/08/19 09:39:26;;;;;;;13.17;8.37;;;33.90;82.50;;;;;;6131475;23;20203;-95
2022/08/19 09:41:52;;;;;;;8.00;7.23;;;33.90;82.90;;;;;;6133793;23;20389;-95
2022/08/19 09:44:20;;;;;;;7.43;6.83;;;33.90;82.50;;;;;;6133334;23;20408;-95
2022/08/19 09:46:48;;;;;;;7.00;6.40;;;33.90;82.30;;;;;;6134090;23;20389;-94
2022/08/19 09:49:52;;;;;;;9.17;6.47;;;33.90;82.20;;;;;;6137997;23;20404;-95
2022/08/19 09:52:18;;;;;;;8.57;7.50;;;34.00;81.20;;;;;;6111754;23;20438;-95
2022/08/19 09:54:44;;;;;;;7.23;6.50;;;34.00;81.30;;;;;;6134128;23;20406;-96
2022/08/19 09:57:09;;;;;;;6.30;5.77;;;34.00;81.30;;;;;;6133449;23;20170;-95
2022/08/19 09:59:35;;;;;;;7.90;5.93;;;34.10;81.30;;;;;;6146318;23;20251;-94
2022/08/19 10:02:01;;;;;;;6.87;6.27;;;34.20;81.50;;;;;;6137433;23;20194;-94
2022/08/19 10:05:47;;;;;;;8.30;6.03;;;34.30;79.80;;;;;;6134587;23;20179;-96
2022/08/19 10:07:13;;;;;;;5.77;4.80;;;34.20;80.50;;;;;;6159086;23;20479;-95
2022/08/19 10:09:40;;;;;;;5.67;4.97;;;34.30;79.70;;;;;;6130044;23;20472;-94
2022/08/19 10:12:07;;;;;;;5.60;5.10;;;34.40;79.40;;;;;;6132436;23;20441;-94
2022/08/19 10:14:33;;;;;;;7.97;4.90;;;34.40;79.00;;;;;;6135810;23;20416;-94
2022/08/19 10:17:02;;;;;;;4.73;4.37;;;34.50;77.70;;;;;;6158515;23;20417;-94
2022/08/19 10:19:32;;;;;;;6.77;5.53;;;34.60;78.80;;;;;;6133121;23;20448;-94
2022/08/19 10:21:58;;;;;;;5.43;4.70;;;34.70;78.50;;;;;;6140319;23;20389;-94
2022/08/19 10:24:25;;;;;;;8.13;5.87;;;34.70;78.50;;;;;;6131122;23;20405;-94
2022/08/19 10:26:51;;;;;;;5.90;5.30;;;34.70;78.50;;;;;;6157003;23;20194;-95
2022/08/19 10:29:17;;;;;;;5.90;4.87;;;34.80;79.00;;;;;;6129971;23;20496;-95
2022/08/19 10:31:43;;;;;;;9.07;5.57;;;34.70;78.90;;;;;;6128976;23;20436;-94
2022/08/19 10:34:12;;;;;;;6.50;5.70;;;34.80;78.20;;;;;;6134069;23;20512;-95
2022/08/19 10:36:38;;;;;;;5.63;5.10;;;34.80;78.50;;;;;;6157451;23;20388;-94
2022/08/19 10:39:11;;;;;;;6.50;5.27;;;34.80;78.10;;;;;;6131895;23;20440;-94
2022/08/19 10:41:39;;;;;;;7.90;4.70;;;34.90;76.70;;;;;;6135626;23;20405;-94
2022/08/19 10:44:07;;;;;;;4.30;3.77;;;35.00;76.60;;;;;;6156123;23;20945;-95
2022/08/19 10:46:37;;;;;;;5.43;3.87;;;35.10;75.80;;;;;;6130889;23;20397;-94
2022/08/19 10:49:04;;;;;;;4.93;4.43;;;35.00;77.10;;;;;;6129889;23;20464;-95
2022/08/19 10:54:18;;;;;;;4.43;4.03;;;35.20;75.60;;;;;;6160737;23;20423;-94
2022/08/19 10:56:53;;;;;;;6.73;4.70;;;35.20;75.70;;;;;;6129707;23;20667;-94
2022/08/19 10:59:23;;;;;;;6.67;4.80;;;35.20;76.70;;;;;;6125063;23;20471;-96
2022/08/19 11:01:50;;;;;;;4.67;4.27;;;35.20;76.60;;;;;;6131527;23;20495;-93
2022/08/19 11:04:18;;;;;;;4.20;3.80;;;35.20;76.50;;;;;;6132023;23;20405;-94
2022/08/19 11:06:48;;;;;;;5.53;4.10;;;35.20;77.00;;;;;;6156994;23;20396;-95
2022/08/19 11:09:21;;;;;;;9.60;4.00;;;35.20;76.80;;;;;;6133876;23;20401;-95
2022/08/19 11:11:47;;;;;;;4.90;4.50;;;35.30;75.60;;;;;;6145711;23;20407;-93
2022/08/19 11:14:18;;;;;;;7.50;4.40;;;35.20;76.60;;;;;;6131253;23;20416;-95
2022/08/19 11:16:44;;;;;;;7.63;4.63;;;35.30;76.20;;;;;;6135105;23;20488;-95
2022/08/19 11:19:12;;;;;;;9.60;5.83;;;35.30;74.00;;;;;;6133071;23;20441;-95
2022/08/19 11:21:41;;;;;;;9.23;5.87;;;35.40;74.80;;;;;;6135368;23;20183;-95
2022/08/19 11:24:33;;;;;;;6.90;4.83;;;35.40;75.30;;;;;;6134908;23;20436;-94
2022/08/19 11:27:09;;;;;;;6.13;4.67;;;35.40;74.50;;;;;;6135349;23;20436;-94
2022/08/19 11:29:37;;;;;;;7.70;4.80;;;35.50;73.50;;;;;;6129702;23;20407;-94
2022/08/19 11:32:08;;;;;;;7.30;5.23;;;35.60;72.10;;;;;;6129629;23;20432;-95
2022/08/19 11:34:35;;;;;;;5.87;5.27;;;35.80;72.30;;;;;;6128036;23;20472;-94
2022/08/19 11:37:03;;;;;;;5.53;4.60;;;35.80;72.60;;;;;;6128261;23;20413;-95
2022/08/19 11:39:30;;;;;;;7.47;4.90;;;35.80;72.20;;;;;;6128277;23;20515;-95
2022/08/19 11:41:59;;;;;;;9.00;5.40;;;35.80;73.50;;;;;;6129055;23;20890;-96
2022/08/19 11:44:25;;;;;;;41.70;5.50;;;35.80;74.00;;;;;;6130770;23;20898;-94
2022/08/19 11:46:52;;;;;;;8.13;6.23;;;35.70;74.60;;;;;;6133657;23;20862;-94
2022/08/19 11:49:19;;;;;;;5.77;4.73;;;35.70;74.80;;;;;;6131209;23;20437;-93
2022/08/19 11:51:45;;;;;;;6.97;5.37;;;35.80;72.70;;;;;;6133360;23;20428;-95
2022/08/19 11:54:13;;;;;;;6.07;5.50;;;35.80;74.60;;;;;;6164749;23;20480;-96
2022/08/19 11:56:40;;;;;;;6.83;5.10;;;35.80;72.70;;;;;;6137164;23;20390;-95
2022/08/19 11:59:07;;;;;;;5.17;4.60;;;35.90;73.60;;;;;;6159221;23;20432;-96
2022/08/19 12:01:34;;;;;;;6.03;5.03;;;35.90;71.70;;;;;;6132986;23;20389;-96
2022/08/19 12:04:00;;;;;;;6.90;4.60;;;36.10;71.60;;;;;;6133035;23;20389;-95
2022/08/19 12:06:28;;;;;;;6.60;4.93;;;36.10;71.30;;;;;;6131256;23;20376;-94
2022/08/19 12:08:56;;;;;;;7.80;5.17;;;36.20;70.60;;;;;;6130359;23;20373;-95
2022/08/19 12:11:22;;;;;;;7.90;4.70;;;36.20;71.30;;;;;;6132230;23;20905;-95
2022/08/19 12:13:48;;;;;;;8.20;5.27;;;36.10;72.10;;;;;;6136297;23;20381;-94
2022/08/19 12:16:17;;;;;;;7.20;5.40;;;36.10;70.90;;;;;;6132600;23;20792;-94
2022/08/19 12:18:45;;;;;;;6.70;5.53;;;36.20;70.30;;;;;;6131104;23;20159;-92
2022/08/19 12:21:13;;;;;;;7.00;5.10;;;36.30;70.50;;;;;;6130400;23;20813;-93
2022/08/19 12:23:39;;;;;;;6.83;4.97;;;36.30;70.30;;;;;;6131621;23;20385;-93
2022/08/19 12:26:05;;;;;;;5.97;4.57;;;36.30;71.90;;;;;;6133747;23;20440;-93
2022/08/19 12:28:31;;;;;;;6.13;4.80;;;36.30;72.10;;;;;;6138113;23;20463;-94
2022/08/19 12:30:57;;;;;;;6.60;5.03;;;36.20;72.60;;;;;;6132499;23;20186;-92
2022/08/19 12:33:26;;;;;;;5.43;4.03;;;36.30;73.00;;;;;;6132091;23;20449;-92
2022/08/19 12:35:52;;;;;;;7.27;5.37;;;36.20;73.30;;;;;;6131313;23;20750;-92
2022/08/19 12:38:18;;;;;;;6.53;5.30;;;36.10;73.40;;;;;;6130052;23;20451;-92
2022/08/19 12:40:48;;;;;;;7.80;5.77;;;36.10;73.50;;;;;;6130644;23;20452;-92
2022/08/19 12:43:15;;;;;;;5.27;4.40;;;36.10;72.20;;;;;;6156736;23;20401;-93
2022/08/19 12:45:42;;;;;;;6.40;5.37;;;36.10;73.00;;;;;;6133277;23;20417;-93
2022/08/19 12:48:11;;;;;;;5.87;5.27;;;36.00;73.40;;;;;;6138054;23;20404;-92
2022/08/19 12:50:40;;;;;;;9.83;5.30;;;36.00;73.30;;;;;;6131907;23;20441;-92
2022/08/19 12:53:06;;;;;;;9.40;5.20;;;36.10;71.30;;;;;;6128521;23;20747;-93
2022/08/19 12:55:32;;;;;;;7.60;4.93;;;36.10;70.60;;;;;;6130472;23;20421;-91
2022/08/19 12:58:01;;;;;;;8.60;4.83;;;36.10;71.90;;;;;;6138874;23;20165;-94
2022/08/19 13:00:28;;;;;;;9.67;4.40;;;36.10;72.30;;;;;;6132125;23;20291;-94